sensor_id;sensor_type;location;lat;lon;timestamp;temperature;humidity
70851;DHT22;58475;49.662;9.636;2023-05-07T00:01:15;13.21;88.63
70851;DHT22;58475;49.662;9.636;2023-05-07T00:03:40;13.14;88.21
70851;DHT22;58475;49.662;9.636;2023-05-07T00:06:05;13.07;88.35
70851;DHT22;58475;49.662;9.636;2023-05-07T00:08:31;13.08;88.09
70851;DHT22;58475;49.662;9.636;2023-05-07T00:10:56;13.00;88.50
70851;DHT22;58475;49.662;9.636;2023-05-07T00:13:22;13.10;87.81
70851;DHT22;58475;49.662;9.636;2023-05-07T00:15:47;13.21;87.02
70851;DHT22;58475;49.662;9.636;2023-05-07T00:18:12;13.06;87.95
70851;DHT22;58475;49.662;9.636;2023-05-07T00:20:38;13.04;88.18
70851;DHT22;58475;49.662;9.636;2023-05-07T00:23:03;12.91;88.29
70851;DHT22;58475;49.662;9.636;2023-05-07T00:25:28;12.73;89.05
70851;DHT22;58475;49.662;9.636;2023-05-07T00:27:54;12.76;89.01
70851;DHT22;58475;49.662;9.636;2023-05-07T00:30:20;12.56;89.73
70851;DHT22;58475;49.662;9.636;2023-05-07T00:32:45;12.40;90.00
70851;DHT22;58475;49.662;9.636;2023-05-07T00:35:11;12.38;90.10
70851;DHT22;58475;49.662;9.636;2023-05-07T00:37:36;12.46;89.76
70851;DHT22;58475;49.662;9.636;2023-05-07T00:40:02;12.48;89.82
70851;DHT22;58475;49.662;9.636;2023-05-07T00:42:30;12.38;90.03
70851;DHT22;58475;49.662;9.636;2023-05-07T00:44:58;12.33;90.18
70851;DHT22;58475;49.662;9.636;2023-05-07T00:47:23;12.18;90.75
70851;DHT22;58475;49.662;9.636;2023-05-07T00:49:50;12.11;91.22
70851;DHT22;58475;49.662;9.636;2023-05-07T00:52:16;12.02;91.53
70851;DHT22;58475;49.662;9.636;2023-05-07T00:54:42;12.08;91.27
70851;DHT22;58475;49.662;9.636;2023-05-07T00:57:09;12.08;91.05
70851;DHT22;58475;49.662;9.636;2023-05-07T00:59:35;12.02;91.22
70851;DHT22;58475;49.662;9.636;2023-05-07T01:02:01;12.18;90.91
70851;DHT22;58475;49.662;9.636;2023-05-07T01:04:26;12.22;90.53
70851;DHT22;58475;49.662;9.636;2023-05-07T01:06:53;12.22;90.49
70851;DHT22;58475;49.662;9.636;2023-05-07T01:09:19;12.14;90.69
70851;DHT22;58475;49.662;9.636;2023-05-07T01:11:47;12.14;90.73
70851;DHT22;58475;49.662;9.636;2023-05-07T01:14:13;12.14;90.59
70851;DHT22;58475;49.662;9.636;2023-05-07T01:16:38;12.12;90.75
70851;DHT22;58475;49.662;9.636;2023-05-07T01:19:08;12.05;91.09
70851;DHT22;58475;49.662;9.636;2023-05-07T01:21:37;12.17;90.61
70851;DHT22;58475;49.662;9.636;2023-05-07T01:24:04;12.17;90.24
70851;DHT22;58475;49.662;9.636;2023-05-07T01:26:31;12.14;90.18
70851;DHT22;58475;49.662;9.636;2023-05-07T01:28:57;12.01;90.71
70851;DHT22;58475;49.662;9.636;2023-05-07T01:31:23;11.99;90.63
70851;DHT22;58475;49.662;9.636;2023-05-07T01:33:50;11.75;90.82
70851;DHT22;58475;49.662;9.636;2023-05-07T01:36:18;11.63;90.96
70851;DHT22;58475;49.662;9.636;2023-05-07T01:38:45;11.57;91.01
70851;DHT22;58475;49.662;9.636;2023-05-07T01:41:11;11.56;91.11
70851;DHT22;58475;49.662;9.636;2023-05-07T01:43:37;11.39;91.59
70851;DHT22;58475;49.662;9.636;2023-05-07T01:46:03;11.53;91.49
70851;DHT22;58475;49.662;9.636;2023-05-07T01:48:29;11.47;91.54
70851;DHT22;58475;49.662;9.636;2023-05-07T01:50:55;11.46;91.84
70851;DHT22;58475;49.662;9.636;2023-05-07T01:53:20;11.46;91.93
70851;DHT22;58475;49.662;9.636;2023-05-07T01:55:46;11.56;91.35
70851;DHT22;58475;49.662;9.636;2023-05-07T01:58:11;11.74;91.22
70851;DHT22;58475;49.662;9.636;2023-05-07T02:00:37;11.82;91.17
70851;DHT22;58475;49.662;9.636;2023-05-07T02:03:03;11.81;91.26
70851;DHT22;58475;49.662;9.636;2023-05-07T02:05:36;11.81;91.36
70851;DHT22;58475;49.662;9.636;2023-05-07T02:08:08;11.81;91.27
70851;DHT22;58475;49.662;9.636;2023-05-07T02:10:33;11.88;91.08
70851;DHT22;58475;49.662;9.636;2023-05-07T02:12:59;11.71;90.92
70851;DHT22;58475;49.662;9.636;2023-05-07T02:15:27;11.75;90.99
70851;DHT22;58475;49.662;9.636;2023-05-07T02:18:07;11.90;90.42
70851;DHT22;58475;49.662;9.636;2023-05-07T02:20:34;11.54;91.06
70851;DHT22;58475;49.662;9.636;2023-05-07T02:23:00;11.51;91.20
70851;DHT22;58475;49.662;9.636;2023-05-07T02:25:28;11.53;91.53
70851;DHT22;58475;49.662;9.636;2023-05-07T02:27:54;11.70;91.25
70851;DHT22;58475;49.662;9.636;2023-05-07T02:30:23;11.67;91.50
70851;DHT22;58475;49.662;9.636;2023-05-07T02:32:52;11.67;91.83
70851;DHT22;58475;49.662;9.636;2023-05-07T02:35:17;11.69;91.51
70851;DHT22;58475;49.662;9.636;2023-05-07T02:37:43;11.71;91.54
70851;DHT22;58475;49.662;9.636;2023-05-07T02:40:09;11.63;91.67
70851;DHT22;58475;49.662;9.636;2023-05-07T02:42:35;11.66;91.70
70851;DHT22;58475;49.662;9.636;2023-05-07T02:45:00;11.75;91.35
70851;DHT22;58475;49.662;9.636;2023-05-07T02:47:26;11.84;90.86
70851;DHT22;58475;49.662;9.636;2023-05-07T02:49:55;11.70;91.24
70851;DHT22;58475;49.662;9.636;2023-05-07T02:52:21;11.63;91.48
70851;DHT22;58475;49.662;9.636;2023-05-07T02:54:46;11.61;91.49
70851;DHT22;58475;49.662;9.636;2023-05-07T02:57:11;11.67;91.71
70851;DHT22;58475;49.662;9.636;2023-05-07T02:59:37;11.61;91.45
70851;DHT22;58475;49.662;9.636;2023-05-07T03:02:02;11.51;91.75
70851;DHT22;58475;49.662;9.636;2023-05-07T03:04:28;11.56;91.82
70851;DHT22;58475;49.662;9.636;2023-05-07T03:06:53;11.59;91.56
70851;DHT22;58475;49.662;9.636;2023-05-07T03:09:18;11.56;91.67
70851;DHT22;58475;49.662;9.636;2023-05-07T03:11:44;11.71;91.18
70851;DHT22;58475;49.662;9.636;2023-05-07T03:14:10;11.60;91.32
70851;DHT22;58475;49.662;9.636;2023-05-07T03:16:35;11.51;91.86
70851;DHT22;58475;49.662;9.636;2023-05-07T03:19:01;11.57;91.81
70851;DHT22;58475;49.662;9.636;2023-05-07T03:21:28;11.53;91.76
70851;DHT22;58475;49.662;9.636;2023-05-07T03:23:53;11.37;91.99
70851;DHT22;58475;49.662;9.636;2023-05-07T03:26:19;11.37;92.05
70851;DHT22;58475;49.662;9.636;2023-05-07T03:28:45;11.43;91.97
70851;DHT22;58475;49.662;9.636;2023-05-07T03:31:13;11.37;91.92
70851;DHT22;58475;49.662;9.636;2023-05-07T03:33:52;11.27;92.22
70851;DHT22;58475;49.662;9.636;2023-05-07T03:36:19;11.27;91.68
70851;DHT22;58475;49.662;9.636;2023-05-07T03:38:44;11.26;91.95
70851;DHT22;58475;49.662;9.636;2023-05-07T03:41:11;11.34;91.70
70851;DHT22;58475;49.662;9.636;2023-05-07T03:43:37;11.34;91.75
70851;DHT22;58475;49.662;9.636;2023-05-07T03:46:06;11.27;91.99
70851;DHT22;58475;49.662;9.636;2023-05-07T03:48:32;11.27;92.11
70851;DHT22;58475;49.662;9.636;2023-05-07T03:50:58;11.24;92.21
70851;DHT22;58475;49.662;9.636;2023-05-07T03:53:27;11.37;91.90
70851;DHT22;58475;49.662;9.636;2023-05-07T03:55:52;11.34;91.81
70851;DHT22;58475;49.662;9.636;2023-05-07T03:58:18;11.32;92.04
70851;DHT22;58475;49.662;9.636;2023-05-07T04:00:44;11.30;92.32
70851;DHT22;58475;49.662;9.636;2023-05-07T04:03:19;11.24;92.34
70851;DHT22;58475;49.662;9.636;2023-05-07T04:05:45;11.33;92.10
70851;DHT22;58475;49.662;9.636;2023-05-07T04:08:10;11.30;91.97
70851;DHT22;58475;49.662;9.636;2023-05-07T04:10:42;11.39;92.08
70851;DHT22;58475;49.662;9.636;2023-05-07T04:13:09;11.24;92.22
70851;DHT22;58475;49.662;9.636;2023-05-07T04:15:36;11.46;91.84
70851;DHT22;58475;49.662;9.636;2023-05-07T04:18:01;11.44;91.77
70851;DHT22;58475;49.662;9.636;2023-05-07T04:20:27;11.33;92.21
70851;DHT22;58475;49.662;9.636;2023-05-07T04:23:01;11.47;92.06
70851;DHT22;58475;49.662;9.636;2023-05-07T04:25:27;11.47;92.16
70851;DHT22;58475;49.662;9.636;2023-05-07T04:27:57;11.59;91.91
70851;DHT22;58475;49.662;9.636;2023-05-07T04:30:25;11.53;92.26
70851;DHT22;58475;49.662;9.636;2023-05-07T04:32:52;11.54;92.29
70851;DHT22;58475;49.662;9.636;2023-05-07T04:35:19;11.66;92.05
70851;DHT22;58475;49.662;9.636;2023-05-07T04:37:44;11.70;92.28
70851;DHT22;58475;49.662;9.636;2023-05-07T04:40:10;11.80;91.94
70851;DHT22;58475;49.662;9.636;2023-05-07T04:42:36;11.94;91.70
70851;DHT22;58475;49.662;9.636;2023-05-07T04:45:02;11.90;91.85
70851;DHT22;58475;49.662;9.636;2023-05-07T04:47:30;11.95;91.78
70851;DHT22;58475;49.662;9.636;2023-05-07T04:49:57;12.01;91.54
70851;DHT22;58475;49.662;9.636;2023-05-07T04:52:23;12.06;91.40
70851;DHT22;58475;49.662;9.636;2023-05-07T04:54:48;12.12;91.41
70851;DHT22;58475;49.662;9.636;2023-05-07T04:57:14;12.14;91.50
70851;DHT22;58475;49.662;9.636;2023-05-07T04:59:41;12.35;90.67
70851;DHT22;58475;49.662;9.636;2023-05-07T05:02:07;12.24;91.29
70851;DHT22;58475;49.662;9.636;2023-05-07T05:04:33;12.12;91.62
70851;DHT22;58475;49.662;9.636;2023-05-07T05:06:58;12.25;91.90
70851;DHT22;58475;49.662;9.636;2023-05-07T05:09:24;12.24;91.20
70851;DHT22;58475;49.662;9.636;2023-05-07T05:11:49;12.48;91.24
70851;DHT22;58475;49.662;9.636;2023-05-07T05:14:15;12.49;91.06
70851;DHT22;58475;49.662;9.636;2023-05-07T05:16:40;12.66;90.99
70851;DHT22;58475;49.662;9.636;2023-05-07T05:19:06;12.72;90.91
70851;DHT22;58475;49.662;9.636;2023-05-07T05:21:34;12.86;90.76
70851;DHT22;58475;49.662;9.636;2023-05-07T05:24:06;12.83;91.08
70851;DHT22;58475;49.662;9.636;2023-05-07T05:26:31;12.79;91.34
70851;DHT22;58475;49.662;9.636;2023-05-07T05:28:57;13.10;90.33
70851;DHT22;58475;49.662;9.636;2023-05-07T05:31:24;13.07;89.94
70851;DHT22;58475;49.662;9.636;2023-05-07T05:33:50;12.90;90.38
70851;DHT22;58475;49.662;9.636;2023-05-07T05:36:16;12.89;90.97
70851;DHT22;58475;49.662;9.636;2023-05-07T05:38:43;12.89;90.87
70851;DHT22;58475;49.662;9.636;2023-05-07T05:41:10;13.01;90.41
70851;DHT22;58475;49.662;9.636;2023-05-07T05:43:36;13.11;90.69
70851;DHT22;58475;49.662;9.636;2023-05-07T05:46:01;13.10;90.58
70851;DHT22;58475;49.662;9.636;2023-05-07T05:48:28;13.21;90.52
70851;DHT22;58475;49.662;9.636;2023-05-07T05:50:53;13.35;89.69
70851;DHT22;58475;49.662;9.636;2023-05-07T05:53:19;13.17;90.47
70851;DHT22;58475;49.662;9.636;2023-05-07T05:55:44;13.12;90.48
70851;DHT22;58475;49.662;9.636;2023-05-07T05:58:11;13.25;90.53
70851;DHT22;58475;49.662;9.636;2023-05-07T06:00:41;13.35;90.11
70851;DHT22;58475;49.662;9.636;2023-05-07T06:03:06;13.68;89.42
70851;DHT22;58475;49.662;9.636;2023-05-07T06:05:33;13.52;89.67
70851;DHT22;58475;49.662;9.636;2023-05-07T06:07:58;13.45;89.55
70851;DHT22;58475;49.662;9.636;2023-05-07T06:10:26;13.92;88.95
70851;DHT22;58475;49.662;9.636;2023-05-07T06:12:52;13.90;88.61
70851;DHT22;58475;49.662;9.636;2023-05-07T06:15:18;13.82;89.73
70851;DHT22;58475;49.662;9.636;2023-05-07T06:17:44;14.06;89.17
70851;DHT22;58475;49.662;9.636;2023-05-07T06:20:10;14.12;89.32
70851;DHT22;58475;49.662;9.636;2023-05-07T06:22:36;14.17;88.69
70851;DHT22;58475;49.662;9.636;2023-05-07T06:25:02;14.45;87.87
70851;DHT22;58475;49.662;9.636;2023-05-07T06:27:28;14.69;87.35
70851;DHT22;58475;49.662;9.636;2023-05-07T06:29:54;14.91;86.37
70851;DHT22;58475;49.662;9.636;2023-05-07T06:32:20;14.89;86.68
70851;DHT22;58475;49.662;9.636;2023-05-07T06:34:45;15.28;85.92
70851;DHT22;58475;49.662;9.636;2023-05-07T06:37:18;15.43;85.77
70851;DHT22;58475;49.662;9.636;2023-05-07T06:39:53;15.56;85.94
70851;DHT22;58475;49.662;9.636;2023-05-07T06:42:19;15.91;84.25
70851;DHT22;58475;49.662;9.636;2023-05-07T06:44:47;15.93;84.39
70851;DHT22;58475;49.662;9.636;2023-05-07T06:47:14;16.17;82.01
70851;DHT22;58475;49.662;9.636;2023-05-07T06:49:40;16.26;81.35
70851;DHT22;58475;49.662;9.636;2023-05-07T06:52:06;16.33;82.00
70851;DHT22;58475;49.662;9.636;2023-05-07T06:54:34;16.45;80.78
70851;DHT22;58475;49.662;9.636;2023-05-07T06:56:59;16.52;80.82
70851;DHT22;58475;49.662;9.636;2023-05-07T06:59:26;16.66;81.01
70851;DHT22;58475;49.662;9.636;2023-05-07T07:01:52;16.44;79.88
70851;DHT22;58475;49.662;9.636;2023-05-07T07:04:18;16.46;79.86
70851;DHT22;58475;49.662;9.636;2023-05-07T07:06:48;16.51;80.03
70851;DHT22;58475;49.662;9.636;2023-05-07T07:09:13;16.49;79.89
70851;DHT22;58475;49.662;9.636;2023-05-07T07:11:39;16.60;80.12
70851;DHT22;58475;49.662;9.636;2023-05-07T07:14:05;16.96;79.17
70851;DHT22;58475;49.662;9.636;2023-05-07T07:16:34;16.96;80.20
70851;DHT22;58475;49.662;9.636;2023-05-07T07:19:00;17.16;79.16
70851;DHT22;58475;49.662;9.636;2023-05-07T07:21:26;17.44;76.67
70851;DHT22;58475;49.662;9.636;2023-05-07T07:23:52;17.59;76.12
70851;DHT22;58475;49.662;9.636;2023-05-07T07:26:18;17.65;77.05
70851;DHT22;58475;49.662;9.636;2023-05-07T07:28:47;17.42;75.97
70851;DHT22;58475;49.662;9.636;2023-05-07T07:31:16;17.31;76.01
70851;DHT22;58475;49.662;9.636;2023-05-07T07:33:42;17.68;75.92
70851;DHT22;58475;49.662;9.636;2023-05-07T07:36:07;17.56;76.03
70851;DHT22;58475;49.662;9.636;2023-05-07T07:38:34;17.49;75.71
70851;DHT22;58475;49.662;9.636;2023-05-07T07:41:00;17.55;76.22
70851;DHT22;58475;49.662;9.636;2023-05-07T07:43:26;17.74;74.16
70851;DHT22;58475;49.662;9.636;2023-05-07T07:45:52;17.59;75.11
70851;DHT22;58475;49.662;9.636;2023-05-07T07:48:18;17.58;74.00
70851;DHT22;58475;49.662;9.636;2023-05-07T07:50:44;17.85;73.71
70851;DHT22;58475;49.662;9.636;2023-05-07T07:53:11;17.83;73.32
70851;DHT22;58475;49.662;9.636;2023-05-07T07:55:40;17.93;71.44
70851;DHT22;58475;49.662;9.636;2023-05-07T07:58:06;18.17;72.62
70851;DHT22;58475;49.662;9.636;2023-05-07T08:00:32;18.53;71.94
70851;DHT22;58475;49.662;9.636;2023-05-07T08:02:58;18.94;71.60
70851;DHT22;58475;49.662;9.636;2023-05-07T08:05:27;19.20;69.60
70851;DHT22;58475;49.662;9.636;2023-05-07T08:07:53;18.85;70.42
70851;DHT22;58475;49.662;9.636;2023-05-07T08:10:24;19.39;69.00
70851;DHT22;58475;49.662;9.636;2023-05-07T08:12:55;19.74;66.62
70851;DHT22;58475;49.662;9.636;2023-05-07T08:15:20;19.74;68.64
70851;DHT22;58475;49.662;9.636;2023-05-07T08:17:47;19.77;66.01
70851;DHT22;58475;49.662;9.636;2023-05-07T08:20:13;20.57;67.10
70851;DHT22;58475;49.662;9.636;2023-05-07T08:22:39;20.32;66.51
70851;DHT22;58475;49.662;9.636;2023-05-07T08:25:05;20.00;67.31
70851;DHT22;58475;49.662;9.636;2023-05-07T08:27:34;19.95;66.51
70851;DHT22;58475;49.662;9.636;2023-05-07T08:29:59;20.51;66.83
70851;DHT22;58475;49.662;9.636;2023-05-07T08:32:25;21.48;66.44
70851;DHT22;58475;49.662;9.636;2023-05-07T08:34:50;22.06;62.79
70851;DHT22;58475;49.662;9.636;2023-05-07T08:37:16;21.88;63.60
70851;DHT22;58475;49.662;9.636;2023-05-07T08:39:42;21.85;63.92
70851;DHT22;58475;49.662;9.636;2023-05-07T08:42:16;21.61;63.18
70851;DHT22;58475;49.662;9.636;2023-05-07T08:44:45;21.48;63.68
70851;DHT22;58475;49.662;9.636;2023-05-07T08:47:15;21.57;63.22
70851;DHT22;58475;49.662;9.636;2023-05-07T08:49:42;21.51;63.89
70851;DHT22;58475;49.662;9.636;2023-05-07T08:52:08;22.22;63.45
70851;DHT22;58475;49.662;9.636;2023-05-07T08:54:33;22.56;61.41
70851;DHT22;58475;49.662;9.636;2023-05-07T08:57:00;22.50;61.77
70851;DHT22;58475;49.662;9.636;2023-05-07T08:59:26;22.06;62.78
70851;DHT22;58475;49.662;9.636;2023-05-07T09:01:51;22.51;61.45
70851;DHT22;58475;49.662;9.636;2023-05-07T09:04:17;21.98;63.46
70851;DHT22;58475;49.662;9.636;2023-05-07T09:06:43;22.12;63.26
70851;DHT22;58475;49.662;9.636;2023-05-07T09:09:14;22.43;62.14
70851;DHT22;58475;49.662;9.636;2023-05-07T09:11:41;22.64;61.91
70851;DHT22;58475;49.662;9.636;2023-05-07T09:14:07;21.96;62.14
70851;DHT22;58475;49.662;9.636;2023-05-07T09:16:37;22.71;61.43
70851;DHT22;58475;49.662;9.636;2023-05-07T09:19:03;22.87;60.84
70851;DHT22;58475;49.662;9.636;2023-05-07T09:21:31;23.48;60.42
70851;DHT22;58475;49.662;9.636;2023-05-07T09:23:59;23.77;60.31
70851;DHT22;58475;49.662;9.636;2023-05-07T09:26:34;23.97;58.20
70851;DHT22;58475;49.662;9.636;2023-05-07T09:29:01;23.74;58.16
70851;DHT22;58475;49.662;9.636;2023-05-07T09:31:27;23.21;59.88
70851;DHT22;58475;49.662;9.636;2023-05-07T09:33:54;22.81;60.35
70851;DHT22;58475;49.662;9.636;2023-05-07T09:36:22;22.60;62.30
70851;DHT22;58475;49.662;9.636;2023-05-07T09:38:48;22.03;60.68
70851;DHT22;58475;49.662;9.636;2023-05-07T09:41:16;21.86;62.39
70851;DHT22;58475;49.662;9.636;2023-05-07T09:43:53;22.98;62.67
70851;DHT22;58475;49.662;9.636;2023-05-07T09:46:25;23.00;57.63
70851;DHT22;58475;49.662;9.636;2023-05-07T09:48:53;23.81;59.41
70851;DHT22;58475;49.662;9.636;2023-05-07T09:51:34;23.96;59.86
70851;DHT22;58475;49.662;9.636;2023-05-07T09:54:04;23.74;58.96
70851;DHT22;58475;49.662;9.636;2023-05-07T09:56:33;23.50;59.46
70851;DHT22;58475;49.662;9.636;2023-05-07T09:59:00;24.42;59.25
70851;DHT22;58475;49.662;9.636;2023-05-07T10:01:30;23.66;58.03
70851;DHT22;58475;49.662;9.636;2023-05-07T10:03:57;23.41;60.56
70851;DHT22;58475;49.662;9.636;2023-05-07T10:06:24;23.67;58.75
70851;DHT22;58475;49.662;9.636;2023-05-07T10:08:51;24.83;58.39
70851;DHT22;58475;49.662;9.636;2023-05-07T10:11:17;24.64;58.05
70851;DHT22;58475;49.662;9.636;2023-05-07T10:13:44;24.83;59.23
70851;DHT22;58475;49.662;9.636;2023-05-07T10:16:11;25.66;55.91
70851;DHT22;58475;49.662;9.636;2023-05-07T10:18:42;26.46;56.72
70851;DHT22;58475;49.662;9.636;2023-05-07T10:21:17;25.22;54.51
70851;DHT22;58475;49.662;9.636;2023-05-07T10:23:51;24.75;55.54
70851;DHT22;58475;49.662;9.636;2023-05-07T10:26:20;25.36;55.52
70851;DHT22;58475;49.662;9.636;2023-05-07T10:28:50;25.54;54.42
70851;DHT22;58475;49.662;9.636;2023-05-07T10:31:44;26.42;54.49
70851;DHT22;58475;49.662;9.636;2023-05-07T10:34:18;25.95;54.30
70851;DHT22;58475;49.662;9.636;2023-05-07T10:36:45;26.31;53.82
70851;DHT22;58475;49.662;9.636;2023-05-07T10:39:12;26.31;53.12
70851;DHT22;58475;49.662;9.636;2023-05-07T10:41:39;26.35;54.13
70851;DHT22;58475;49.662;9.636;2023-05-07T10:44:05;25.75;53.21
70851;DHT22;58475;49.662;9.636;2023-05-07T10:46:32;26.06;53.68
70851;DHT22;58475;49.662;9.636;2023-05-07T10:49:14;25.60;53.99
70851;DHT22;58475;49.662;9.636;2023-05-07T10:52:18;25.23;55.08
70851;DHT22;58475;49.662;9.636;2023-05-07T10:57:45;24.64;54.77
70851;DHT22;58475;49.662;9.636;2023-05-07T11:05:40;25.74;54.92
70851;DHT22;58475;49.662;9.636;2023-05-07T11:08:23;25.31;54.56
70851;DHT22;58475;49.662;9.636;2023-05-07T11:10:56;24.82;55.25
70851;DHT22;58475;49.662;9.636;2023-05-07T11:16:23;25.31;56.06
70851;DHT22;58475;49.662;9.636;2023-05-07T11:18:56;25.71;54.06
70851;DHT22;58475;49.662;9.636;2023-05-07T11:21:36;25.98;53.67
70851;DHT22;58475;49.662;9.636;2023-05-07T11:24:21;26.33;54.24
70851;DHT22;58475;49.662;9.636;2023-05-07T11:27:08;26.14;52.47
70851;DHT22;58475;49.662;9.636;2023-05-07T11:29:33;25.57;53.29
70851;DHT22;58475;49.662;9.636;2023-05-07T11:32:05;26.32;52.01
70851;DHT22;58475;49.662;9.636;2023-05-07T11:34:38;26.14;49.88
70851;DHT22;58475;49.662;9.636;2023-05-07T11:37:04;26.63;51.48
70851;DHT22;58475;49.662;9.636;2023-05-07T11:39:40;26.33;52.75
70851;DHT22;58475;49.662;9.636;2023-05-07T11:42:05;26.19;50.05
70851;DHT22;58475;49.662;9.636;2023-05-07T11:44:44;25.44;50.72
70851;DHT22;58475;49.662;9.636;2023-05-07T11:47:11;25.02;51.57
70851;DHT22;58475;49.662;9.636;2023-05-07T11:49:42;24.47;54.51
70851;DHT22;58475;49.662;9.636;2023-05-07T11:52:08;24.80;53.76
70851;DHT22;58475;49.662;9.636;2023-05-07T11:54:37;24.38;53.05
70851;DHT22;58475;49.662;9.636;2023-05-07T11:57:02;23.94;53.09
70851;DHT22;58475;49.662;9.636;2023-05-07T11:59:28;23.81;54.82
70851;DHT22;58475;49.662;9.636;2023-05-07T12:01:57;24.20;54.25
70851;DHT22;58475;49.662;9.636;2023-05-07T12:04:22;24.31;55.85
70851;DHT22;58475;49.662;9.636;2023-05-07T12:06:48;24.88;55.75
70851;DHT22;58475;49.662;9.636;2023-05-07T12:09:13;25.16;53.55
70851;DHT22;58475;49.662;9.636;2023-05-07T12:11:38;26.22;51.52
70851;DHT22;58475;49.662;9.636;2023-05-07T12:14:05;27.03;51.11
70851;DHT22;58475;49.662;9.636;2023-05-07T12:16:30;26.28;50.94
70851;DHT22;58475;49.662;9.636;2023-05-07T12:18:56;26.39;52.94
70851;DHT22;58475;49.662;9.636;2023-05-07T12:21:24;25.88;50.02
70851;DHT22;58475;49.662;9.636;2023-05-07T12:23:50;25.74;50.63
70851;DHT22;58475;49.662;9.636;2023-05-07T12:26:15;25.89;53.10
70851;DHT22;58475;49.662;9.636;2023-05-07T12:28:41;25.56;50.71
70851;DHT22;58475;49.662;9.636;2023-05-07T12:31:07;25.87;52.39
70851;DHT22;58475;49.662;9.636;2023-05-07T12:33:34;25.70;52.31
70851;DHT22;58475;49.662;9.636;2023-05-07T12:36:03;25.58;53.58
70851;DHT22;58475;49.662;9.636;2023-05-07T12:38:35;26.28;51.76
70851;DHT22;58475;49.662;9.636;2023-05-07T12:41:00;26.70;51.28
70851;DHT22;58475;49.662;9.636;2023-05-07T12:43:29;26.02;53.73
70851;DHT22;58475;49.662;9.636;2023-05-07T12:45:56;25.50;52.17
70851;DHT22;58475;49.662;9.636;2023-05-07T12:48:23;26.49;51.62
70851;DHT22;58475;49.662;9.636;2023-05-07T12:51:07;26.69;49.89
70851;DHT22;58475;49.662;9.636;2023-05-07T12:53:39;25.89;51.30
70851;DHT22;58475;49.662;9.636;2023-05-07T12:56:05;26.35;51.19
70851;DHT22;58475;49.662;9.636;2023-05-07T12:58:33;26.50;51.16
70851;DHT22;58475;49.662;9.636;2023-05-07T13:01:03;26.02;51.61
70851;DHT22;58475;49.662;9.636;2023-05-07T13:03:31;25.95;49.27
70851;DHT22;58475;49.662;9.636;2023-05-07T13:05:59;26.80;50.03
70851;DHT22;58475;49.662;9.636;2023-05-07T13:08:33;26.70;49.41
70851;DHT22;58475;49.662;9.636;2023-05-07T13:10:59;26.16;50.15
70851;DHT22;58475;49.662;9.636;2023-05-07T13:13:29;26.29;49.84
70851;DHT22;58475;49.662;9.636;2023-05-07T13:15:54;26.42;49.00
70851;DHT22;58475;49.662;9.636;2023-05-07T13:18:20;26.86;50.04
70851;DHT22;58475;49.662;9.636;2023-05-07T13:20:45;25.99;47.04
70851;DHT22;58475;49.662;9.636;2023-05-07T13:23:10;26.59;45.45
70851;DHT22;58475;49.662;9.636;2023-05-07T13:25:36;26.69;48.47
70851;DHT22;58475;49.662;9.636;2023-05-07T13:28:01;26.76;47.26
70851;DHT22;58475;49.662;9.636;2023-05-07T13:30:28;26.67;43.52
70851;DHT22;58475;49.662;9.636;2023-05-07T13:32:55;26.50;42.51
70851;DHT22;58475;49.662;9.636;2023-05-07T13:35:20;26.37;43.52
70851;DHT22;58475;49.662;9.636;2023-05-07T13:37:46;27.03;45.25
70851;DHT22;58475;49.662;9.636;2023-05-07T13:40:13;27.27;46.58
70851;DHT22;58475;49.662;9.636;2023-05-07T13:42:38;27.58;44.74
70851;DHT22;58475;49.662;9.636;2023-05-07T13:45:04;27.20;44.58
70851;DHT22;58475;49.662;9.636;2023-05-07T13:47:30;27.01;46.69
70851;DHT22;58475;49.662;9.636;2023-05-07T13:49:55;26.69;47.02
70851;DHT22;58475;49.662;9.636;2023-05-07T13:52:21;26.53;48.14
70851;DHT22;58475;49.662;9.636;2023-05-07T13:54:47;26.86;48.23
70851;DHT22;58475;49.662;9.636;2023-05-07T13:57:12;26.40;49.67
70851;DHT22;58475;49.662;9.636;2023-05-07T13:59:37;27.15;46.57
70851;DHT22;58475;49.662;9.636;2023-05-07T14:02:03;26.82;47.61
70851;DHT22;58475;49.662;9.636;2023-05-07T14:04:30;27.56;44.56
70851;DHT22;58475;49.662;9.636;2023-05-07T14:06:55;27.34;46.35
70851;DHT22;58475;49.662;9.636;2023-05-07T14:09:21;26.90;45.08
70851;DHT22;58475;49.662;9.636;2023-05-07T14:11:46;26.02;45.48
70851;DHT22;58475;49.662;9.636;2023-05-07T14:14:16;26.72;47.90
70851;DHT22;58475;49.662;9.636;2023-05-07T14:16:41;26.70;45.76
70851;DHT22;58475;49.662;9.636;2023-05-07T14:19:07;26.18;45.62
70851;DHT22;58475;49.662;9.636;2023-05-07T14:21:32;26.14;46.61
70851;DHT22;58475;49.662;9.636;2023-05-07T14:23:58;25.77;45.08
70851;DHT22;58475;49.662;9.636;2023-05-07T14:26:23;26.61;46.07
70851;DHT22;58475;49.662;9.636;2023-05-07T14:28:48;26.67;46.74
70851;DHT22;58475;49.662;9.636;2023-05-07T14:31:14;26.67;47.79
70851;DHT22;58475;49.662;9.636;2023-05-07T14:33:39;26.14;49.29
70851;DHT22;58475;49.662;9.636;2023-05-07T14:36:05;25.54;47.90
70851;DHT22;58475;49.662;9.636;2023-05-07T14:38:30;24.99;48.99
70851;DHT22;58475;49.662;9.636;2023-05-07T14:40:58;24.92;48.98
70851;DHT22;58475;49.662;9.636;2023-05-07T14:43:23;24.69;48.18
70851;DHT22;58475;49.662;9.636;2023-05-07T14:45:49;24.93;49.68
70851;DHT22;58475;49.662;9.636;2023-05-07T14:48:15;24.73;50.35
70851;DHT22;58475;49.662;9.636;2023-05-07T14:50:43;24.54;50.96
70851;DHT22;58475;49.662;9.636;2023-05-07T14:53:11;24.21;52.37
70851;DHT22;58475;49.662;9.636;2023-05-07T14:55:36;24.52;51.01
70851;DHT22;58475;49.662;9.636;2023-05-07T14:58:02;24.17;51.52
70851;DHT22;58475;49.662;9.636;2023-05-07T15:00:28;24.27;51.72
70851;DHT22;58475;49.662;9.636;2023-05-07T15:02:55;24.44;53.76
70851;DHT22;58475;49.662;9.636;2023-05-07T15:05:28;24.04;51.65
70851;DHT22;58475;49.662;9.636;2023-05-07T15:07:53;23.83;52.25
70851;DHT22;58475;49.662;9.636;2023-05-07T15:10:18;23.60;53.24
70851;DHT22;58475;49.662;9.636;2023-05-07T15:12:44;23.49;54.01
70851;DHT22;58475;49.662;9.636;2023-05-07T15:15:10;23.58;54.39
70851;DHT22;58475;49.662;9.636;2023-05-07T15:17:35;23.81;52.90
70851;DHT22;58475;49.662;9.636;2023-05-07T15:20:01;23.45;53.12
70851;DHT22;58475;49.662;9.636;2023-05-07T15:22:26;23.32;53.14
70851;DHT22;58475;49.662;9.636;2023-05-07T15:24:52;23.45;54.22
70851;DHT22;58475;49.662;9.636;2023-05-07T15:27:17;23.49;54.23
70851;DHT22;58475;49.662;9.636;2023-05-07T15:29:43;23.26;53.25
70851;DHT22;58475;49.662;9.636;2023-05-07T15:32:08;23.11;53.51
70851;DHT22;58475;49.662;9.636;2023-05-07T15:34:33;23.16;55.34
70851;DHT22;58475;49.662;9.636;2023-05-07T15:36:59;23.14;54.67
70851;DHT22;58475;49.662;9.636;2023-05-07T15:39:24;22.98;54.95
70851;DHT22;58475;49.662;9.636;2023-05-07T15:41:50;22.70;55.08